sensor_id;sensor_type;location;lat;lon;timestamp;P1;durP1;ratioP1;P2;durP2;ratioP2
24261;SDS011;12385;51.412;5.540;2023-06-14T00:01:57;9.10;;;5.47;;
24261;SDS011;12385;51.412;5.540;2023-06-14T00:04:23;11.40;;;4.97;;
24261;SDS011;12385;51.412;5.540;2023-06-14T00:06:50;14.18;;;5.60;;
24261;SDS011;12385;51.412;5.540;2023-06-14T00:09:16;11.05;;;5.40;;
24261;SDS011;12385;51.412;5.540;2023-06-14T00:11:44;6.25;;;5.15;;
24261;SDS011;12385;51.412;5.540;2023-06-14T00:14:10;10.13;;;4.90;;
24261;SDS011;12385;51.412;5.540;2023-06-14T00:16:44;8.55;;;4.95;;
24261;SDS011;12385;51.412;5.540;2023-06-14T00:19:10;11.05;;;5.53;;
24261;SDS011;12385;51.412;5.540;2023-06-14T00:21:37;10.82;;;5.57;;
24261;SDS011;12385;51.412;5.540;2023-06-14T00:24:03;8.65;;;5.25;;
24261;SDS011;12385;51.412;5.540;2023-06-14T00:26:29;10.45;;;5.40;;
24261;SDS011;12385;51.412;5.540;2023-06-14T00:28:55;9.82;;;5.38;;
24261;SDS011;12385;51.412;5.540;2023-06-14T00:31:21;11.32;;;5.00;;
24261;SDS011;12385;51.412;5.540;2023-06-14T00:33:51;9.50;;;5.70;;
24261;SDS011;12385;51.412;5.540;2023-06-14T00:36:16;10.27;;;5.80;;
24261;SDS011;12385;51.412;5.540;2023-06-14T00:38:42;9.48;;;5.45;;
24261;SDS011;12385;51.412;5.540;2023-06-14T00:41:08;8.10;;;5.28;;
24261;SDS011;12385;51.412;5.540;2023-06-14T00:43:33;10.73;;;5.65;;
24261;SDS011;12385;51.412;5.540;2023-06-14T00:46:00;6.93;;;4.75;;
24261;SDS011;12385;51.412;5.540;2023-06-14T00:48:28;8.65;;;5.15;;
24261;SDS011;12385;51.412;5.540;2023-06-14T00:50:55;9.35;;;5.35;;
24261;SDS011;12385;51.412;5.540;2023-06-14T00:53:22;9.65;;;5.55;;
24261;SDS011;12385;51.412;5.540;2023-06-14T00:55:50;7.05;;;5.28;;
24261;SDS011;12385;51.412;5.540;2023-06-14T00:58:19;8.65;;;5.35;;
24261;SDS011;12385;51.412;5.540;2023-06-14T01:00:47;9.25;;;5.78;;
24261;SDS011;12385;51.412;5.540;2023-06-14T01:03:13;10.20;;;5.10;;
24261;SDS011;12385;51.412;5.540;2023-06-14T01:05:44;10.80;;;5.63;;
24261;SDS011;12385;51.412;5.540;2023-06-14T01:13:45;14.57;;;6.47;;
24261;SDS011;12385;51.412;5.540;2023-06-14T01:16:11;8.00;;;5.53;;
24261;SDS011;12385;51.412;5.540;2023-06-14T01:18:37;9.73;;;5.25;;
24261;SDS011;12385;51.412;5.540;2023-06-14T01:21:22;11.85;;;5.15;;
24261;SDS011;12385;51.412;5.540;2023-06-14T01:23:48;9.48;;;5.43;;
24261;SDS011;12385;51.412;5.540;2023-06-14T01:26:18;14.43;;;5.15;;
24261;SDS011;12385;51.412;5.540;2023-06-14T01:28:45;10.15;;;6.28;;
24261;SDS011;12385;51.412;5.540;2023-06-14T01:31:17;9.48;;;5.63;;
24261;SDS011;12385;51.412;5.540;2023-06-14T01:33:49;13.70;;;6.53;;
24261;SDS011;12385;51.412;5.540;2023-06-14T01:36:16;10.82;;;5.65;;
24261;SDS011;12385;51.412;5.540;2023-06-14T01:38:44;11.57;;;5.45;;
24261;SDS011;12385;51.412;5.540;2023-06-14T01:41:10;9.93;;;5.68;;
24261;SDS011;12385;51.412;5.540;2023-06-14T01:43:38;9.15;;;4.85;;
24261;SDS011;12385;51.412;5.540;2023-06-14T01:46:05;9.32;;;5.57;;
24261;SDS011;12385;51.412;5.540;2023-06-14T01:48:34;9.70;;;6.22;;
24261;SDS011;12385;51.412;5.540;2023-06-14T01:51:00;10.65;;;5.75;;
24261;SDS011;12385;51.412;5.540;2023-06-14T01:53:26;10.07;;;5.70;;
24261;SDS011;12385;51.412;5.540;2023-06-14T01:55:51;8.93;;;5.63;;
24261;SDS011;12385;51.412;5.540;2023-06-14T01:58:19;14.02;;;5.80;;
24261;SDS011;12385;51.412;5.540;2023-06-14T02:00:45;10.82;;;5.57;;
24261;SDS011;12385;51.412;5.540;2023-06-14T02:03:12;7.35;;;5.00;;
24261;SDS011;12385;51.412;5.540;2023-06-14T02:05:46;12.52;;;4.40;;
24261;SDS011;12385;51.412;5.540;2023-06-14T02:08:12;8.93;;;4.57;;
24261;SDS011;12385;51.412;5.540;2023-06-14T02:10:37;8.50;;;4.55;;
24261;SDS011;12385;51.412;5.540;2023-06-14T02:13:04;8.27;;;4.70;;
24261;SDS011;12385;51.412;5.540;2023-06-14T02:15:29;8.68;;;4.78;;
24261;SDS011;12385;51.412;5.540;2023-06-14T02:18:01;12.70;;;4.40;;
24261;SDS011;12385;51.412;5.540;2023-06-14T02:20:28;6.68;;;4.40;;
24261;SDS011;12385;51.412;5.540;2023-06-14T02:22:54;5.45;;;4.30;;
24261;SDS011;12385;51.412;5.540;2023-06-14T02:25:20;7.90;;;4.30;;
24261;SDS011;12385;51.412;5.540;2023-06-14T02:27:49;9.07;;;4.30;;
24261;SDS011;12385;51.412;5.540;2023-06-14T02:30:15;6.85;;;3.80;;
24261;SDS011;12385;51.412;5.540;2023-06-14T02:32:41;7.93;;;4.20;;
24261;SDS011;12385;51.412;5.540;2023-06-14T02:35:10;10.40;;;4.57;;
24261;SDS011;12385;51.412;5.540;2023-06-14T02:37:35;10.00;;;4.22;;
24261;SDS011;12385;51.412;5.540;2023-06-14T02:40:01;9.68;;;4.20;;
24261;SDS011;12385;51.412;5.540;2023-06-14T02:42:29;9.80;;;4.65;;
24261;SDS011;12385;51.412;5.540;2023-06-14T02:44:55;8.82;;;4.13;;
24261;SDS011;12385;51.412;5.540;2023-06-14T02:47:22;5.82;;;4.03;;
24261;SDS011;12385;51.412;5.540;2023-06-14T02:49:50;6.07;;;4.45;;
24261;SDS011;12385;51.412;5.540;2023-06-14T02:52:16;9.25;;;4.65;;
24261;SDS011;12385;51.412;5.540;2023-06-14T02:54:41;9.45;;;4.70;;
24261;SDS011;12385;51.412;5.540;2023-06-14T02:57:13;7.53;;;4.40;;
24261;SDS011;12385;51.412;5.540;2023-06-14T02:59:39;10.43;;;4.57;;
24261;SDS011;12385;51.412;5.540;2023-06-14T03:02:05;11.25;;;4.40;;
24261;SDS011;12385;51.412;5.540;2023-06-14T03:04:30;8.40;;;4.40;;
24261;SDS011;12385;51.412;5.540;2023-06-14T03:07:02;9.38;;;4.00;;
24261;SDS011;12385;51.412;5.540;2023-06-14T03:09:34;6.38;;;4.15;;
24261;SDS011;12385;51.412;5.540;2023-06-14T03:12:03;8.23;;;4.35;;
24261;SDS011;12385;51.412;5.540;2023-06-14T03:14:30;7.28;;;4.25;;
24261;SDS011;12385;51.412;5.540;2023-06-14T03:16:58;13.20;;;4.43;;
24261;SDS011;12385;51.412;5.540;2023-06-14T03:19:25;10.85;;;4.38;;
24261;SDS011;12385;51.412;5.540;2023-06-14T03:21:51;6.85;;;4.15;;
24261;SDS011;12385;51.412;5.540;2023-06-14T03:24:19;11.07;;;4.40;;
24261;SDS011;12385;51.412;5.540;2023-06-14T03:26:44;7.15;;;4.50;;
24261;SDS011;12385;51.412;5.540;2023-06-14T03:29:11;9.45;;;4.47;;
24261;SDS011;12385;51.412;5.540;2023-06-14T03:31:41;8.30;;;4.18;;
24261;SDS011;12385;51.412;5.540;2023-06-14T03:34:21;9.55;;;4.47;;
24261;SDS011;12385;51.412;5.540;2023-06-14T03:36:47;9.15;;;4.47;;
24261;SDS011;12385;51.412;5.540;2023-06-14T03:39:13;10.60;;;4.28;;
24261;SDS011;12385;51.412;5.540;2023-06-14T03:41:38;7.30;;;4.10;;
24261;SDS011;12385;51.412;5.540;2023-06-14T03:44:05;6.07;;;4.00;;
24261;SDS011;12385;51.412;5.540;2023-06-14T03:46:30;7.10;;;3.40;;
24261;SDS011;12385;51.412;5.540;2023-06-14T03:48:58;8.60;;;4.00;;
24261;SDS011;12385;51.412;5.540;2023-06-14T03:51:25;6.83;;;4.17;;
24261;SDS011;12385;51.412;5.540;2023-06-14T03:53:52;9.27;;;3.85;;
24261;SDS011;12385;51.412;5.540;2023-06-14T03:56:19;7.75;;;4.05;;
24261;SDS011;12385;51.412;5.540;2023-06-14T03:58:44;6.90;;;3.92;;
24261;SDS011;12385;51.412;5.540;2023-06-14T04:01:10;6.25;;;3.75;;
24261;SDS011;12385;51.412;5.540;2023-06-14T04:03:37;9.98;;;4.03;;
24261;SDS011;12385;51.412;5.540;2023-06-14T04:06:04;11.77;;;3.88;;
24261;SDS011;12385;51.412;5.540;2023-06-14T04:08:30;10.77;;;3.90;;
24261;SDS011;12385;51.412;5.540;2023-06-14T04:10:56;8.20;;;3.85;;
24261;SDS011;12385;51.412;5.540;2023-06-14T04:13:22;8.95;;;4.10;;
24261;SDS011;12385;51.412;5.540;2023-06-14T04:15:47;8.43;;;4.07;;
24261;SDS011;12385;51.412;5.540;2023-06-14T04:18:20;6.20;;;3.53;;
24261;SDS011;12385;51.412;5.540;2023-06-14T04:20:46;5.10;;;3.47;;
24261;SDS011;12385;51.412;5.540;2023-06-14T04:23:12;6.80;;;3.83;;
24261;SDS011;12385;51.412;5.540;2023-06-14T04:25:42;7.50;;;3.70;;
24261;SDS011;12385;51.412;5.540;2023-06-14T04:28:12;7.28;;;3.50;;
24261;SDS011;12385;51.412;5.540;2023-06-14T04:30:42;8.20;;;3.85;;
24261;SDS011;12385;51.412;5.540;2023-06-14T04:33:09;9.80;;;3.83;;
24261;SDS011;12385;51.412;5.540;2023-06-14T04:35:35;11.52;;;3.72;;
24261;SDS011;12385;51.412;5.540;2023-06-14T04:38:02;8.27;;;3.72;;
24261;SDS011;12385;51.412;5.540;2023-06-14T04:40:30;9.93;;;4.25;;
24261;SDS011;12385;51.412;5.540;2023-06-14T04:42:58;10.02;;;4.13;;
24261;SDS011;12385;51.412;5.540;2023-06-14T04:45:33;11.10;;;3.67;;
24261;SDS011;12385;51.412;5.540;2023-06-14T04:48:01;8.23;;;3.58;;
24261;SDS011;12385;51.412;5.540;2023-06-14T04:50:27;8.90;;;4.30;;
24261;SDS011;12385;51.412;5.540;2023-06-14T04:52:56;26.70;;;4.47;;
24261;SDS011;12385;51.412;5.540;2023-06-14T04:55:21;8.23;;;3.67;;
24261;SDS011;12385;51.412;5.540;2023-06-14T04:57:47;8.95;;;4.15;;
24261;SDS011;12385;51.412;5.540;2023-06-14T05:00:15;14.45;;;4.05;;
24261;SDS011;12385;51.412;5.540;2023-06-14T05:02:48;9.85;;;4.28;;
24261;SDS011;12385;51.412;5.540;2023-06-14T05:05:16;8.43;;;4.13;;
24261;SDS011;12385;51.412;5.540;2023-06-14T05:07:42;8.43;;;3.70;;
24261;SDS011;12385;51.412;5.540;2023-06-14T05:10:08;20.15;;;4.05;;
24261;SDS011;12385;51.412;5.540;2023-06-14T05:12:35;8.82;;;4.20;;
24261;SDS011;12385;51.412;5.540;2023-06-14T05:15:02;18.77;;;4.20;;
24261;SDS011;12385;51.412;5.540;2023-06-14T05:17:30;10.65;;;4.40;;
24261;SDS011;12385;51.412;5.540;2023-06-14T05:19:55;11.07;;;4.38;;
24261;SDS011;12385;51.412;5.540;2023-06-14T05:22:21;8.07;;;4.57;;
24261;SDS011;12385;51.412;5.540;2023-06-14T05:24:47;10.57;;;4.55;;
24261;SDS011;12385;51.412;5.540;2023-06-14T05:27:13;10.40;;;4.68;;
24261;SDS011;12385;51.412;5.540;2023-06-14T05:29:42;7.47;;;4.10;;
24261;SDS011;12385;51.412;5.540;2023-06-14T05:32:10;12.32;;;4.72;;
24261;SDS011;12385;51.412;5.540;2023-06-14T05:34:35;11.48;;;4.40;;
24261;SDS011;12385;51.412;5.540;2023-06-14T05:37:05;17.45;;;5.43;;
24261;SDS011;12385;51.412;5.540;2023-06-14T05:39:31;11.07;;;4.57;;
24261;SDS011;12385;51.412;5.540;2023-06-14T05:41:57;17.08;;;4.53;;
24261;SDS011;12385;51.412;5.540;2023-06-14T05:44:23;14.10;;;4.65;;
24261;SDS011;12385;51.412;5.540;2023-06-14T05:46:50;12.30;;;4.80;;
24261;SDS011;12385;51.412;5.540;2023-06-14T05:49:16;11.77;;;4.82;;
24261;SDS011;12385;51.412;5.540;2023-06-14T05:51:41;10.70;;;4.82;;
24261;SDS011;12385;51.412;5.540;2023-06-14T05:54:07;13.85;;;4.78;;
24261;SDS011;12385;51.412;5.540;2023-06-14T05:56:32;14.95;;;4.70;;
24261;SDS011;12385;51.412;5.540;2023-06-14T05:58:58;10.65;;;4.78;;
24261;SDS011;12385;51.412;5.540;2023-06-14T06:01:24;8.88;;;4.22;;
24261;SDS011;12385;51.412;5.540;2023-06-14T06:03:50;20.95;;;5.10;;
24261;SDS011;12385;51.412;5.540;2023-06-14T06:06:17;14.10;;;5.07;;
24261;SDS011;12385;51.412;5.540;2023-06-14T06:08:43;8.27;;;4.05;;
24261;SDS011;12385;51.412;5.540;2023-06-14T06:11:08;8.00;;;4.45;;
24261;SDS011;12385;51.412;5.540;2023-06-14T06:13:35;24.85;;;4.93;;
24261;SDS011;12385;51.412;5.540;2023-06-14T06:16:01;9.35;;;4.40;;
24261;SDS011;12385;51.412;5.540;2023-06-14T06:18:28;12.65;;;5.18;;
24261;SDS011;12385;51.412;5.540;2023-06-14T06:20:53;12.27;;;4.85;;
24261;SDS011;12385;51.412;5.540;2023-06-14T06:23:19;12.77;;;4.38;;
24261;SDS011;12385;51.412;5.540;2023-06-14T06:25:44;13.48;;;4.80;;
24261;SDS011;12385;51.412;5.540;2023-06-14T06:28:10;12.00;;;4.68;;
24261;SDS011;12385;51.412;5.540;2023-06-14T06:30:36;14.80;;;4.82;;
24261;SDS011;12385;51.412;5.540;2023-06-14T06:33:01;11.95;;;4.40;;
24261;SDS011;12385;51.412;5.540;2023-06-14T06:35:29;21.42;;;4.80;;
24261;SDS011;12385;51.412;5.540;2023-06-14T06:37:55;9.40;;;4.15;;
24261;SDS011;12385;51.412;5.540;2023-06-14T06:40:21;13.30;;;4.35;;
24261;SDS011;12385;51.412;5.540;2023-06-14T06:42:47;16.75;;;4.82;;
24261;SDS011;12385;51.412;5.540;2023-06-14T06:45:13;15.70;;;4.30;;
24261;SDS011;12385;51.412;5.540;2023-06-14T06:47:40;14.60;;;3.90;;
24261;SDS011;12385;51.412;5.540;2023-06-14T06:50:06;11.40;;;3.90;;
24261;SDS011;12385;51.412;5.540;2023-06-14T06:52:32;7.60;;;3.85;;
24261;SDS011;12385;51.412;5.540;2023-06-14T06:54:58;9.25;;;3.78;;
24261;SDS011;12385;51.412;5.540;2023-06-14T06:57:24;13.45;;;4.53;;
24261;SDS011;12385;51.412;5.540;2023-06-14T06:59:49;17.27;;;3.63;;
24261;SDS011;12385;51.412;5.540;2023-06-14T07:02:17;10.40;;;3.28;;
24261;SDS011;12385;51.412;5.540;2023-06-14T07:04:43;15.43;;;3.63;;
24261;SDS011;12385;51.412;5.540;2023-06-14T07:07:09;11.88;;;3.25;;
24261;SDS011;12385;51.412;5.540;2023-06-14T07:09:36;13.90;;;3.38;;
24261;SDS011;12385;51.412;5.540;2023-06-14T07:12:02;20.70;;;3.60;;
24261;SDS011;12385;51.412;5.540;2023-06-14T07:14:28;10.23;;;3.10;;
24261;SDS011;12385;51.412;5.540;2023-06-14T07:16:56;14.45;;;3.60;;
24261;SDS011;12385;51.412;5.540;2023-06-14T07:19:21;20.63;;;3.97;;
24261;SDS011;12385;51.412;5.540;2023-06-14T07:21:47;15.38;;;3.20;;
24261;SDS011;12385;51.412;5.540;2023-06-14T07:24:13;14.00;;;3.25;;
24261;SDS011;12385;51.412;5.540;2023-06-14T07:26:41;11.10;;;3.13;;
24261;SDS011;12385;51.412;5.540;2023-06-14T07:29:07;10.65;;;3.05;;
24261;SDS011;12385;51.412;5.540;2023-06-14T07:31:33;8.25;;;3.22;;
24261;SDS011;12385;51.412;5.540;2023-06-14T07:33:58;13.30;;;3.20;;
24261;SDS011;12385;51.412;5.540;2023-06-14T07:36:24;14.73;;;3.28;;
24261;SDS011;12385;51.412;5.540;2023-06-14T07:38:49;8.13;;;3.28;;
24261;SDS011;12385;51.412;5.540;2023-06-14T07:41:15;9.95;;;2.75;;
24261;SDS011;12385;51.412;5.540;2023-06-14T07:43:41;18.35;;;2.92;;
24261;SDS011;12385;51.412;5.540;2023-06-14T07:46:07;9.27;;;3.00;;
24261;SDS011;12385;51.412;5.540;2023-06-14T07:48:34;15.57;;;3.08;;
24261;SDS011;12385;51.412;5.540;2023-06-14T07:50:59;11.52;;;3.00;;
24261;SDS011;12385;51.412;5.540;2023-06-14T07:53:27;11.07;;;3.17;;
24261;SDS011;12385;51.412;5.540;2023-06-14T07:55:52;10.38;;;3.00;;
24261;SDS011;12385;51.412;5.540;2023-06-14T07:58:18;7.10;;;2.70;;
24261;SDS011;12385;51.412;5.540;2023-06-14T08:00:44;18.25;;;2.88;;
24261;SDS011;12385;51.412;5.540;2023-06-14T08:03:11;10.70;;;2.70;;
24261;SDS011;12385;51.412;5.540;2023-06-14T08:05:37;6.15;;;2.70;;
24261;SDS011;12385;51.412;5.540;2023-06-14T08:08:03;13.73;;;2.80;;
24261;SDS011;12385;51.412;5.540;2023-06-14T08:10:29;7.75;;;2.50;;
24261;SDS011;12385;51.412;5.540;2023-06-14T08:12:56;15.82;;;2.85;;
24261;SDS011;12385;51.412;5.540;2023-06-14T08:15:22;10.80;;;2.90;;
24261;SDS011;12385;51.412;5.540;2023-06-14T08:17:47;17.83;;;2.47;;
24261;SDS011;12385;51.412;5.540;2023-06-14T08:20:13;10.80;;;2.65;;
24261;SDS011;12385;51.412;5.540;2023-06-14T08:22:41;7.63;;;2.78;;
24261;SDS011;12385;51.412;5.540;2023-06-14T08:25:14;6.75;;;2.40;;
24261;SDS011;12385;51.412;5.540;2023-06-14T08:27:40;9.40;;;2.47;;
24261;SDS011;12385;51.412;5.540;2023-06-14T08:30:05;16.08;;;2.60;;
24261;SDS011;12385;51.412;5.540;2023-06-14T08:32:33;7.80;;;2.38;;
24261;SDS011;12385;51.412;5.540;2023-06-14T08:34:58;8.60;;;2.20;;
24261;SDS011;12385;51.412;5.540;2023-06-14T08:37:26;10.35;;;2.88;;
24261;SDS011;12385;51.412;5.540;2023-06-14T08:39:52;11.38;;;2.72;;
24261;SDS011;12385;51.412;5.540;2023-06-14T08:42:17;5.07;;;2.17;;
24261;SDS011;12385;51.412;5.540;2023-06-14T08:44:46;9.30;;;2.20;;
24261;SDS011;12385;51.412;5.540;2023-06-14T08:47:12;7.03;;;2.30;;
24261;SDS011;12385;51.412;5.540;2023-06-14T08:49:39;5.90;;;1.70;;
24261;SDS011;12385;51.412;5.540;2023-06-14T08:52:11;4.93;;;1.85;;
24261;SDS011;12385;51.412;5.540;2023-06-14T08:54:38;8.40;;;2.00;;
24261;SDS011;12385;51.412;5.540;2023-06-14T08:57:09;7.90;;;2.10;;
24261;SDS011;12385;51.412;5.540;2023-06-14T08:59:37;6.03;;;2.40;;
24261;SDS011;12385;51.412;5.540;2023-06-14T09:02:17;6.53;;;2.20;;
24261;SDS011;12385;51.412;5.540;2023-06-14T09:04:44;14.45;;;2.00;;
24261;SDS011;12385;51.412;5.540;2023-06-14T09:07:11;6.28;;;1.80;;
24261;SDS011;12385;51.412;5.540;2023-06-14T09:09:41;6.25;;;1.60;;
24261;SDS011;12385;51.412;5.540;2023-06-14T09:12:08;6.90;;;1.85;;
24261;SDS011;12385;51.412;5.540;2023-06-14T09:14:37;11.13;;;1.90;;
24261;SDS011;12385;51.412;5.540;2023-06-14T09:17:05;5.63;;;1.40;;
24261;SDS011;12385;51.412;5.540;2023-06-14T09:19:31;5.80;;;1.20;;
24261;SDS011;12385;51.412;5.540;2023-06-14T09:21:56;9.15;;;1.73;;
24261;SDS011;12385;51.412;5.540;2023-06-14T09:24:25;2.45;;;1.30;;
24261;SDS011;12385;51.412;5.540;2023-06-14T09:26:51;5.55;;;1.27;;
24261;SDS011;12385;51.412;5.540;2023-06-14T09:29:17;5.55;;;1.42;;
24261;SDS011;12385;51.412;5.540;2023-06-14T09:31:45;2.10;;;1.20;;
24261;SDS011;12385;51.412;5.540;2023-06-14T09:34:11;5.55;;;1.02;;
24261;SDS011;12385;51.412;5.540;2023-06-14T09:36:37;4.47;;;1.20;;
24261;SDS011;12385;51.412;5.540;2023-06-14T09:39:11;6.75;;;1.30;;
24261;SDS011;12385;51.412;5.540;2023-06-14T09:41:42;7.20;;;1.08;;
24261;SDS011;12385;51.412;5.540;2023-06-14T09:44:09;3.75;;;1.00;;
24261;SDS011;12385;51.412;5.540;2023-06-14T09:46:37;4.57;;;0.93;;
24261;SDS011;12385;51.412;5.540;2023-06-14T09:49:03;3.33;;;0.90;;
24261;SDS011;12385;51.412;5.540;2023-06-14T09:51:30;3.38;;;1.02;;
24261;SDS011;12385;51.412;5.540;2023-06-14T09:54:00;3.15;;;0.93;;
24261;SDS011;12385;51.412;5.540;2023-06-14T09:56:30;3.65;;;1.10;;
24261;SDS011;12385;51.412;5.540;2023-06-14T09:58:59;3.88;;;1.10;;
24261;SDS011;12385;51.412;5.540;2023-06-14T10:01:30;4.13;;;1.10;;
24261;SDS011;12385;51.412;5.540;2023-06-14T10:04:03;3.40;;;1.15;;
24261;SDS011;12385;51.412;5.540;2023-06-14T10:06:31;6.18;;;1.10;;
24261;SDS011;12385;51.412;5.540;2023-06-14T10:08:59;6.72;;;1.10;;
24261;SDS011;12385;51.412;5.540;2023-06-14T10:11:26;3.67;;;1.08;;
24261;SDS011;12385;51.412;5.540;2023-06-14T10:13:55;3.47;;;1.25;;
24261;SDS011;12385;51.412;5.540;2023-06-14T10:19:19;6.97;;;1.10;;
24261;SDS011;12385;51.412;5.540;2023-06-14T10:24:47;6.15;;;1.20;;
24261;SDS011;12385;51.412;5.540;2023-06-14T10:27:15;4.90;;;1.67;;
24261;SDS011;12385;51.412;5.540;2023-06-14T10:32:28;4.88;;;1.30;;
24261;SDS011;12385;51.412;5.540;2023-06-14T10:34:58;2.83;;;1.50;;
24261;SDS011;12385;51.412;5.540;2023-06-14T10:37:34;8.52;;;1.20;;
24261;SDS011;12385;51.412;5.540;2023-06-14T10:40:01;7.82;;;1.23;;
24261;SDS011;12385;51.412;5.540;2023-06-14T10:42:32;11.40;;;1.48;;
24261;SDS011;12385;51.412;5.540;2023-06-14T10:44:58;3.92;;;1.20;;
24261;SDS011;12385;51.412;5.540;2023-06-14T10:47:32;6.45;;;1.30;;
24261;SDS011;12385;51.412;5.540;2023-06-14T10:50:06;3.28;;;1.30;;
24261;SDS011;12385;51.412;5.540;2023-06-14T10:52:43;13.43;;;1.40;;
24261;SDS011;12385;51.412;5.540;2023-06-14T10:55:16;5.50;;;1.30;;
24261;SDS011;12385;51.412;5.540;2023-06-14T10:57:49;1.85;;;1.10;;
24261;SDS011;12385;51.412;5.540;2023-06-14T11:00:27;2.42;;;1.40;;
24261;SDS011;12385;51.412;5.540;2023-06-14T11:06:00;11.30;;;1.40;;
24261;SDS011;12385;51.412;5.540;2023-06-14T11:09:04;4.45;;;1.40;;
24261;SDS011;12385;51.412;5.540;2023-06-14T11:11:37;5.75;;;1.30;;
24261;SDS011;12385;51.412;5.540;2023-06-14T11:14:06;4.05;;;1.27;;
24261;SDS011;12385;51.412;5.540;2023-06-14T11:16:33;5.05;;;1.42;;
24261;SDS011;12385;51.412;5.540;2023-06-14T11:19:00;4.45;;;1.17;;
24261;SDS011;12385;51.412;5.540;2023-06-14T11:21:28;2.97;;;1.10;;
24261;SDS011;12385;51.412;5.540;2023-06-14T11:23:56;2.13;;;1.20;;
24261;SDS011;12385;51.412;5.540;2023-06-14T11:26:25;7.57;;;1.08;;
24261;SDS011;12385;51.412;5.540;2023-06-14T11:28:55;5.88;;;1.30;;
24261;SDS011;12385;51.412;5.540;2023-06-14T11:31:24;4.13;;;1.13;;
24261;SDS011;12385;51.412;5.540;2023-06-14T11:33:53;2.15;;;1.00;;
24261;SDS011;12385;51.412;5.540;2023-06-14T11:36:20;4.70;;;1.20;;
24261;SDS011;12385;51.412;5.540;2023-06-14T11:38:46;3.28;;;1.20;;
24261;SDS011;12385;51.412;5.540;2023-06-14T11:41:12;2.22;;;1.10;;
24261;SDS011;12385;51.412;5.540;2023-06-14T11:43:37;4.95;;;1.00;;
24261;SDS011;12385;51.412;5.540;2023-06-14T11:46:11;4.50;;;1.45;;
24261;SDS011;12385;51.412;5.540;2023-06-14T11:48:41;4.25;;;1.20;;
24261;SDS011;12385;51.412;5.540;2023-06-14T11:51:09;1.80;;;1.10;;
24261;SDS011;12385;51.412;5.540;2023-06-14T11:53:36;2.57;;;1.23;;
24261;SDS011;12385;51.412;5.540;2023-06-14T11:56:02;5.78;;;1.40;;
24261;SDS011;12385;51.412;5.540;2023-06-14T11:58:29;4.40;;;1.40;;
24261;SDS011;12385;51.412;5.540;2023-06-14T12:00:55;4.65;;;1.15;;
24261;SDS011;12385;51.412;5.540;2023-06-14T12:03:24;7.32;;;1.60;;
24261;SDS011;12385;51.412;5.540;2023-06-14T12:08:37;7.65;;;1.17;;
24261;SDS011;12385;51.412;5.540;2023-06-14T12:11:06;3.27;;;1.23;;
24261;SDS011;12385;51.412;5.540;2023-06-14T12:13:37;2.38;;;1.15;;
24261;SDS011;12385;51.412;5.540;2023-06-14T12:16:04;4.55;;;1.38;;
24261;SDS011;12385;51.412;5.540;2023-06-14T12:18:34;7.15;;;1.27;;
24261;SDS011;12385;51.412;5.540;2023-06-14T12:21:01;3.03;;;0.90;;
24261;SDS011;12385;51.412;5.540;2023-06-14T12:26:17;25.75;;;1.77;;
24261;SDS011;12385;51.412;5.540;2023-06-14T12:28:48;6.80;;;1.10;;
24261;SDS011;12385;51.412;5.540;2023-06-14T12:31:15;8.57;;;1.23;;
24261;SDS011;12385;51.412;5.540;2023-06-14T12:33:41;5.63;;;1.10;;
24261;SDS011;12385;51.412;5.540;2023-06-14T12:36:12;3.88;;;1.00;;
24261;SDS011;12385;51.412;5.540;2023-06-14T12:38:38;5.60;;;1.00;;
24261;SDS011;12385;51.412;5.540;2023-06-14T12:41:04;4.85;;;1.10;;
24261;SDS011;12385;51.412;5.540;2023-06-14T12:43:31;5.57;;;1.15;;
24261;SDS011;12385;51.412;5.540;2023-06-14T12:45:57;3.53;;;0.95;;
24261;SDS011;12385;51.412;5.540;2023-06-14T12:48:27;6.55;;;1.05;;
24261;SDS011;12385;51.412;5.540;2023-06-14T12:50:54;1.30;;;1.00;;
24261;SDS011;12385;51.412;5.540;2023-06-14T12:53:20;2.92;;;1.05;;
24261;SDS011;12385;51.412;5.540;2023-06-14T12:55:46;3.72;;;1.00;;
24261;SDS011;12385;51.412;5.540;2023-06-14T12:58:12;4.75;;;1.00;;
24261;SDS011;12385;51.412;5.540;2023-06-14T13:00:39;2.65;;;0.90;;
24261;SDS011;12385;51.412;5.540;2023-06-14T13:03:05;2.13;;;0.90;;
24261;SDS011;12385;51.412;5.540;2023-06-14T13:05:31;3.80;;;0.93;;
24261;SDS011;12385;51.412;5.540;2023-06-14T13:07:58;4.97;;;1.00;;
24261;SDS011;12385;51.412;5.540;2023-06-14T13:10:24;2.25;;;1.00;;
24261;SDS011;12385;51.412;5.540;2023-06-14T13:12:52;5.57;;;0.90;;
24261;SDS011;12385;51.412;5.540;2023-06-14T13:15:17;1.40;;;0.70;;
24261;SDS011;12385;51.412;5.540;2023-06-14T13:17:44;1.40;;;0.93;;
24261;SDS011;12385;51.412;5.540;2023-06-14T13:20:15;1.85;;;0.93;;
24261;SDS011;12385;51.412;5.540;2023-06-14T13:22:44;3.28;;;0.88;;
24261;SDS011;12385;51.412;5.540;2023-06-14T13:25:10;4.60;;;0.80;;
24261;SDS011;12385;51.412;5.540;2023-06-14T13:27:37;3.97;;;0.85;;
24261;SDS011;12385;51.412;5.540;2023-06-14T13:30:03;6.57;;;0.90;;
24261;SDS011;12385;51.412;5.540;2023-06-14T13:32:30;1.88;;;1.00;;
24261;SDS011;12385;51.412;5.540;2023-06-14T13:34:56;3.53;;;0.80;;
24261;SDS011;12385;51.412;5.540;2023-06-14T13:37:22;2.80;;;0.80;;
24261;SDS011;12385;51.412;5.540;2023-06-14T13:42:17;1.77;;;0.65;;
24261;SDS011;12385;51.412;5.540;2023-06-14T13:44:43;5.13;;;0.70;;
24261;SDS011;12385;51.412;5.540;2023-06-14T13:47:09;4.13;;;0.80;;
24261;SDS011;12385;51.412;5.540;2023-06-14T13:49:35;7.80;;;0.60;;
24261;SDS011;12385;51.412;5.540;2023-06-14T13:52:01;4.47;;;0.60;;
24261;SDS011;12385;51.412;5.540;2023-06-14T13:54:27;2.35;;;0.50;;
24261;SDS011;12385;51.412;5.540;2023-06-14T13:56:53;3.25;;;0.63;;
24261;SDS011;12385;51.412;5.540;2023-06-14T13:59:21;3.25;;;0.60;;
24261;SDS011;12385;51.412;5.540;2023-06-14T14:01:50;2.10;;;0.60;;
24261;SDS011;12385;51.412;5.540;2023-06-14T14:04:16;4.38;;;0.60;;
24261;SDS011;12385;51.412;5.540;2023-06-14T14:06:42;2.28;;;0.50;;
24261;SDS011;12385;51.412;5.540;2023-06-14T14:09:08;1.48;;;0.60;;
24261;SDS011;12385;51.412;5.540;2023-06-14T14:11:34;8.38;;;0.68;;
24261;SDS011;12385;51.412;5.540;2023-06-14T14:14:02;6.82;;;0.60;;
24261;SDS011;12385;51.412;5.540;2023-06-14T14:16:27;5.70;;;0.55;;
24261;SDS011;12385;51.412;5.540;2023-06-14T14:18:55;6.32;;;1.15;;
24261;SDS011;12385;51.412;5.540;2023-06-14T14:21:22;4.60;;;0.52;;
24261;SDS011;12385;51.412;5.540;2023-06-14T14:23:47;3.13;;;0.40;;
24261;SDS011;12385;51.412;5.540;2023-06-14T14:26:14;4.60;;;0.63;;
24261;SDS011;12385;51.412;5.540;2023-06-14T14:28:42;3.60;;;0.82;;
24261;SDS011;12385;51.412;5.540;2023-06-14T14:31:08;2.95;;;0.50;;
24261;SDS011;12385;51.412;5.540;2023-06-14T14:33:40;1.80;;;0.38;;
24261;SDS011;12385;51.412;5.540;2023-06-14T14:36:05;1.77;;;0.57;;
24261;SDS011;12385;51.412;5.540;2023-06-14T14:38:32;5.28;;;0.50;;
24261;SDS011;12385;51.412;5.540;2023-06-14T14:40:58;2.60;;;0.50;;
24261;SDS011;12385;51.412;5.540;2023-06-14T14:43:24;4.18;;;0.60;;
24261;SDS011;12385;51.412;5.540;2023-06-14T14:45:51;7.70;;;0.50;;
24261;SDS011;12385;51.412;5.540;2023-06-14T14:48:17;5.20;;;0.60;;
24261;SDS011;12385;51.412;5.540;2023-06-14T14:50:43;4.38;;;0.60;;
24261;SDS011;12385;51.412;5.540;2023-06-14T14:53:10;5.32;;;0.60;;
24261;SDS011;12385;51.412;5.540;2023-06-14T14:55:37;3.08;;;0.60;;
24261;SDS011;12385;51.412;5.540;2023-06-14T14:58:05;0.82;;;0.40;;
24261;SDS011;12385;51.412;5.540;2023-06-14T15:00:31;6.40;;;0.60;;
24261;SDS011;12385;51.412;5.540;2023-06-14T15:02:58;2.90;;;0.65;;
24261;SDS011;12385;51.412;5.540;2023-06-14T15:05:25;3.55;;;0.40;;
24261;SDS011;12385;51.412;5.540;2023-06-14T15:07:51;12.70;;;5.53;;
24261;SDS011;12385;51.412;5.540;2023-06-14T15:10:20;9.60;;;2.03;;